sensor_id;sensor_type;location;lat;lon;timestamp;temperature;humidity
2439;DHT22;14509;47.992;7.848;2023-03-14T00:01:47;15.40;65.10
2439;DHT22;14509;47.992;7.848;2023-03-14T00:03:55;15.50;65.00
2439;DHT22;14509;47.992;7.848;2023-03-14T00:06:01;15.50;64.60
2439;DHT22;14509;47.992;7.848;2023-03-14T00:08:05;15.70;64.50
2439;DHT22;14509;47.992;7.848;2023-03-14T00:10:09;15.70;64.30
2439;DHT22;14509;47.992;7.848;2023-03-14T00:12:11;15.70;63.90
2439;DHT22;14509;47.992;7.848;2023-03-14T00:14:14;15.70;63.60
2439;DHT22;14509;47.992;7.848;2023-03-14T00:16:18;15.90;63.70
2439;DHT22;14509;47.992;7.848;2023-03-14T00:18:20;15.80;63.50
2439;DHT22;14509;47.992;7.848;2023-03-14T00:20:23;15.90;63.30
2439;DHT22;14509;47.992;7.848;2023-03-14T00:22:26;16.20;62.50
2439;DHT22;14509;47.992;7.848;2023-03-14T00:24:30;15.90;61.20
2439;DHT22;14509;47.992;7.848;2023-03-14T00:26:32;15.90;61.00
2439;DHT22;14509;47.992;7.848;2023-03-14T00:28:34;15.90;60.50
2439;DHT22;14509;47.992;7.848;2023-03-14T00:30:37;16.00;61.10
2439;DHT22;14509;47.992;7.848;2023-03-14T00:32:39;16.10;60.10
2439;DHT22;14509;47.992;7.848;2023-03-14T00:34:42;15.90;59.10
2439;DHT22;14509;47.992;7.848;2023-03-14T00:36:44;16.00;58.10
2439;DHT22;14509;47.992;7.848;2023-03-14T00:38:48;16.00;58.50
2439;DHT22;14509;47.992;7.848;2023-03-14T00:40:52;16.00;59.00
2439;DHT22;14509;47.992;7.848;2023-03-14T00:42:54;16.10;57.80
2439;DHT22;14509;47.992;7.848;2023-03-14T00:44:56;16.10;57.80
2439;DHT22;14509;47.992;7.848;2023-03-14T00:46:58;16.10;57.70
2439;DHT22;14509;47.992;7.848;2023-03-14T00:49:00;16.20;57.70
2439;DHT22;14509;47.992;7.848;2023-03-14T00:51:03;16.20;57.40
2439;DHT22;14509;47.992;7.848;2023-03-14T00:53:05;16.20;57.60
2439;DHT22;14509;47.992;7.848;2023-03-14T00:55:07;16.30;57.20
2439;DHT22;14509;47.992;7.848;2023-03-14T00:57:11;16.30;56.90
2439;DHT22;14509;47.992;7.848;2023-03-14T00:59:13;16.30;56.00
2439;DHT22;14509;47.992;7.848;2023-03-14T01:01:18;16.80;56.30
2439;DHT22;14509;47.992;7.848;2023-03-14T01:03:20;16.20;55.20
2439;DHT22;14509;47.992;7.848;2023-03-14T01:05:24;16.10;54.80
2439;DHT22;14509;47.992;7.848;2023-03-14T01:07:26;16.10;54.80
2439;DHT22;14509;47.992;7.848;2023-03-14T01:09:32;16.00;55.20
2439;DHT22;14509;47.992;7.848;2023-03-14T01:11:35;15.90;55.50
2439;DHT22;14509;47.992;7.848;2023-03-14T01:13:42;16.00;56.60
2439;DHT22;14509;47.992;7.848;2023-03-14T01:15:47;16.00;55.70
2439;DHT22;14509;47.992;7.848;2023-03-14T01:17:52;15.90;54.90
2439;DHT22;14509;47.992;7.848;2023-03-14T01:19:57;16.00;54.70
2439;DHT22;14509;47.992;7.848;2023-03-14T01:22:00;16.00;55.20
2439;DHT22;14509;47.992;7.848;2023-03-14T01:24:04;16.20;55.40
2439;DHT22;14509;47.992;7.848;2023-03-14T01:26:11;16.00;53.50
2439;DHT22;14509;47.992;7.848;2023-03-14T01:28:13;16.00;55.50
2439;DHT22;14509;47.992;7.848;2023-03-14T01:30:18;16.10;54.80
2439;DHT22;14509;47.992;7.848;2023-03-14T01:32:20;16.10;55.10
2439;DHT22;14509;47.992;7.848;2023-03-14T01:34:22;16.10;55.40
2439;DHT22;14509;47.992;7.848;2023-03-14T01:36:24;16.00;55.40
2439;DHT22;14509;47.992;7.848;2023-03-14T01:38:26;16.00;55.90
2439;DHT22;14509;47.992;7.848;2023-03-14T01:40:28;15.90;56.30
2439;DHT22;14509;47.992;7.848;2023-03-14T01:42:30;15.70;56.10
2439;DHT22;14509;47.992;7.848;2023-03-14T01:44:48;15.50;56.30
2439;DHT22;14509;47.992;7.848;2023-03-14T01:46:51;15.30;55.70
2439;DHT22;14509;47.992;7.848;2023-03-14T01:49:02;15.40;58.20
2439;DHT22;14509;47.992;7.848;2023-03-14T01:51:10;15.30;58.00
2439;DHT22;14509;47.992;7.848;2023-03-14T01:53:13;15.00;57.10
2439;DHT22;14509;47.992;7.848;2023-03-14T01:55:18;15.30;58.40
2439;DHT22;14509;47.992;7.848;2023-03-14T01:57:26;15.00;57.20
2439;DHT22;14509;47.992;7.848;2023-03-14T01:59:30;15.00;57.90
2439;DHT22;14509;47.992;7.848;2023-03-14T02:01:34;15.00;57.30
2439;DHT22;14509;47.992;7.848;2023-03-14T02:03:44;15.00;57.70
2439;DHT22;14509;47.992;7.848;2023-03-14T02:05:49;15.00;57.00
2439;DHT22;14509;47.992;7.848;2023-03-14T02:07:56;15.00;57.30
2439;DHT22;14509;47.992;7.848;2023-03-14T02:10:05;15.00;57.10
2439;DHT22;14509;47.992;7.848;2023-03-14T02:12:09;15.10;57.50
2439;DHT22;14509;47.992;7.848;2023-03-14T02:14:36;15.10;57.70
2439;DHT22;14509;47.992;7.848;2023-03-14T02:16:55;15.20;57.60
2439;DHT22;14509;47.992;7.848;2023-03-14T02:19:24;15.20;57.80
2439;DHT22;14509;47.992;7.848;2023-03-14T02:21:50;15.20;56.90
2439;DHT22;14509;47.992;7.848;2023-03-14T02:24:06;15.20;56.20
2439;DHT22;14509;47.992;7.848;2023-03-14T02:26:19;15.20;56.20
2439;DHT22;14509;47.992;7.848;2023-03-14T02:28:23;15.20;54.60
2439;DHT22;14509;47.992;7.848;2023-03-14T02:30:31;15.20;56.40
2439;DHT22;14509;47.992;7.848;2023-03-14T02:32:36;15.50;56.00
2439;DHT22;14509;47.992;7.848;2023-03-14T02:34:41;15.30;54.70
2439;DHT22;14509;47.992;7.848;2023-03-14T02:36:45;15.30;54.90
2439;DHT22;14509;47.992;7.848;2023-03-14T02:38:53;15.20;55.50
2439;DHT22;14509;47.992;7.848;2023-03-14T02:40:59;15.30;56.00
2439;DHT22;14509;47.992;7.848;2023-03-14T02:43:03;15.30;52.30
2439;DHT22;14509;47.992;7.848;2023-03-14T02:47:50;15.20;53.90
2439;DHT22;14509;47.992;7.848;2023-03-14T02:50:00;15.10;53.10
2439;DHT22;14509;47.992;7.848;2023-03-14T02:52:04;15.00;51.60
2439;DHT22;14509;47.992;7.848;2023-03-14T02:54:07;15.00;53.20
2439;DHT22;14509;47.992;7.848;2023-03-14T02:56:10;15.10;53.60
2439;DHT22;14509;47.992;7.848;2023-03-14T02:58:12;15.10;53.00
2439;DHT22;14509;47.992;7.848;2023-03-14T03:00:16;15.10;52.50
2439;DHT22;14509;47.992;7.848;2023-03-14T03:02:18;15.20;53.80
2439;DHT22;14509;47.992;7.848;2023-03-14T03:04:21;15.20;52.90
2439;DHT22;14509;47.992;7.848;2023-03-14T03:06:23;15.30;53.50
2439;DHT22;14509;47.992;7.848;2023-03-14T03:08:26;15.20;55.00
2439;DHT22;14509;47.992;7.848;2023-03-14T03:10:30;15.30;51.50
2439;DHT22;14509;47.992;7.848;2023-03-14T03:12:32;15.20;51.00
2439;DHT22;14509;47.992;7.848;2023-03-14T03:14:34;15.10;55.60
2439;DHT22;14509;47.992;7.848;2023-03-14T03:16:38;15.10;56.40
2439;DHT22;14509;47.992;7.848;2023-03-14T03:18:40;15.10;52.10
2439;DHT22;14509;47.992;7.848;2023-03-14T03:20:43;15.10;53.00
2439;DHT22;14509;47.992;7.848;2023-03-14T03:22:46;15.40;55.40
2439;DHT22;14509;47.992;7.848;2023-03-14T03:24:49;15.20;53.20
2439;DHT22;14509;47.992;7.848;2023-03-14T03:26:51;15.20;55.40
2439;DHT22;14509;47.992;7.848;2023-03-14T03:28:53;15.10;50.30
2439;DHT22;14509;47.992;7.848;2023-03-14T03:30:57;15.10;54.90
2439;DHT22;14509;47.992;7.848;2023-03-14T03:32:59;15.10;53.10
2439;DHT22;14509;47.992;7.848;2023-03-14T03:35:03;15.10;52.40
2439;DHT22;14509;47.992;7.848;2023-03-14T03:37:09;15.10;54.90
2439;DHT22;14509;47.992;7.848;2023-03-14T03:39:14;15.10;52.20
2439;DHT22;14509;47.992;7.848;2023-03-14T03:41:16;15.20;53.50
2439;DHT22;14509;47.992;7.848;2023-03-14T03:43:18;15.20;51.00
2439;DHT22;14509;47.992;7.848;2023-03-14T03:45:23;15.20;54.20
2439;DHT22;14509;47.992;7.848;2023-03-14T03:47:30;15.20;52.70
2439;DHT22;14509;47.992;7.848;2023-03-14T03:49:32;15.20;52.90
2439;DHT22;14509;47.992;7.848;2023-03-14T03:51:35;15.20;52.10
2439;DHT22;14509;47.992;7.848;2023-03-14T03:53:38;15.20;53.10
2439;DHT22;14509;47.992;7.848;2023-03-14T03:55:44;15.20;51.00
2439;DHT22;14509;47.992;7.848;2023-03-14T03:57:49;15.20;54.40
2439;DHT22;14509;47.992;7.848;2023-03-14T03:59:51;15.10;52.50
2439;DHT22;14509;47.992;7.848;2023-03-14T04:01:53;15.10;50.70
2439;DHT22;14509;47.992;7.848;2023-03-14T04:03:55;15.00;53.70
2439;DHT22;14509;47.992;7.848;2023-03-14T04:06:01;15.10;52.20
2439;DHT22;14509;47.992;7.848;2023-03-14T04:08:05;15.10;52.90
2439;DHT22;14509;47.992;7.848;2023-03-14T04:10:10;15.10;54.50
2439;DHT22;14509;47.992;7.848;2023-03-14T04:12:19;15.00;53.00
2439;DHT22;14509;47.992;7.848;2023-03-14T04:14:33;14.90;52.20
2439;DHT22;14509;47.992;7.848;2023-03-14T04:16:53;14.90;49.40
2439;DHT22;14509;47.992;7.848;2023-03-14T04:18:58;15.00;52.90
2439;DHT22;14509;47.992;7.848;2023-03-14T04:21:06;14.90;52.50
2439;DHT22;14509;47.992;7.848;2023-03-14T04:23:18;14.90;51.70
2439;DHT22;14509;47.992;7.848;2023-03-14T04:25:23;14.80;51.20
2439;DHT22;14509;47.992;7.848;2023-03-14T04:27:31;14.80;53.20
2439;DHT22;14509;47.992;7.848;2023-03-14T04:29:35;14.40;51.70
2439;DHT22;14509;47.992;7.848;2023-03-14T04:31:37;14.90;50.30
2439;DHT22;14509;47.992;7.848;2023-03-14T04:33:39;14.80;51.20
2439;DHT22;14509;47.992;7.848;2023-03-14T04:35:42;14.80;52.30
2439;DHT22;14509;47.992;7.848;2023-03-14T04:37:47;14.50;50.40
2439;DHT22;14509;47.992;7.848;2023-03-14T04:39:56;14.60;52.10
2439;DHT22;14509;47.992;7.848;2023-03-14T04:42:02;15.30;51.90
2439;DHT22;14509;47.992;7.848;2023-03-14T04:44:04;15.10;52.80
2439;DHT22;14509;47.992;7.848;2023-03-14T04:46:11;14.50;50.10
2439;DHT22;14509;47.992;7.848;2023-03-14T04:48:13;14.50;49.80
2439;DHT22;14509;47.992;7.848;2023-03-14T04:50:21;14.30;52.60
2439;DHT22;14509;47.992;7.848;2023-03-14T04:52:23;14.30;51.10
2439;DHT22;14509;47.992;7.848;2023-03-14T04:54:28;14.40;51.90
2439;DHT22;14509;47.992;7.848;2023-03-14T04:56:32;14.50;51.50
2439;DHT22;14509;47.992;7.848;2023-03-14T04:58:38;14.80;49.30
2439;DHT22;14509;47.992;7.848;2023-03-14T05:00:40;14.50;50.80
2439;DHT22;14509;47.992;7.848;2023-03-14T05:03:10;14.50;52.10
2439;DHT22;14509;47.992;7.848;2023-03-14T05:05:34;14.60;52.20
2439;DHT22;14509;47.992;7.848;2023-03-14T05:07:46;14.50;50.20
2439;DHT22;14509;47.992;7.848;2023-03-14T05:10:09;14.50;51.60
2439;DHT22;14509;47.992;7.848;2023-03-14T05:12:21;14.30;48.70
2439;DHT22;14509;47.992;7.848;2023-03-14T05:14:41;14.50;51.30
2439;DHT22;14509;47.992;7.848;2023-03-14T05:17:09;14.60;51.90
2439;DHT22;14509;47.992;7.848;2023-03-14T05:19:28;14.50;52.10
2439;DHT22;14509;47.992;7.848;2023-03-14T05:21:49;14.60;50.80
2439;DHT22;14509;47.992;7.848;2023-03-14T05:24:08;14.60;51.50
2439;DHT22;14509;47.992;7.848;2023-03-14T05:26:30;14.70;48.70
2439;DHT22;14509;47.992;7.848;2023-03-14T05:28:53;14.50;49.90
2439;DHT22;14509;47.992;7.848;2023-03-14T05:31:15;14.60;50.00
2439;DHT22;14509;47.992;7.848;2023-03-14T05:33:29;14.60;49.00
2439;DHT22;14509;47.992;7.848;2023-03-14T05:36:04;14.60;51.40
2439;DHT22;14509;47.992;7.848;2023-03-14T05:38:35;14.60;49.40
2439;DHT22;14509;47.992;7.848;2023-03-14T05:40:58;14.60;50.70
2439;DHT22;14509;47.992;7.848;2023-03-14T05:43:11;14.70;49.40
2439;DHT22;14509;47.992;7.848;2023-03-14T05:45:35;14.60;49.00
2439;DHT22;14509;47.992;7.848;2023-03-14T05:47:59;15.00;49.30
2439;DHT22;14509;47.992;7.848;2023-03-14T05:50:21;15.00;48.00
2439;DHT22;14509;47.992;7.848;2023-03-14T05:52:34;15.10;47.90
2439;DHT22;14509;47.992;7.848;2023-03-14T05:55:03;15.10;48.40
2439;DHT22;14509;47.992;7.848;2023-03-14T05:57:32;15.20;49.00
2439;DHT22;14509;47.992;7.848;2023-03-14T06:00:00;15.20;47.20
2439;DHT22;14509;47.992;7.848;2023-03-14T06:02:24;15.20;48.00
2439;DHT22;14509;47.992;7.848;2023-03-14T06:04:40;15.30;47.30
2439;DHT22;14509;47.992;7.848;2023-03-14T06:06:45;15.40;47.30
2439;DHT22;14509;47.992;7.848;2023-03-14T06:08:47;15.40;45.90
2439;DHT22;14509;47.992;7.848;2023-03-14T06:10:51;15.40;45.50
2439;DHT22;14509;47.992;7.848;2023-03-14T06:13:01;15.50;44.90
2439;DHT22;14509;47.992;7.848;2023-03-14T06:15:06;15.50;44.90
2439;DHT22;14509;47.992;7.848;2023-03-14T06:17:09;15.60;44.40
2439;DHT22;14509;47.992;7.848;2023-03-14T06:19:19;15.70;44.50
2439;DHT22;14509;47.992;7.848;2023-03-14T06:21:23;15.70;43.80
2439;DHT22;14509;47.992;7.848;2023-03-14T06:23:26;15.80;44.00
2439;DHT22;14509;47.992;7.848;2023-03-14T06:25:32;15.60;43.50
2439;DHT22;14509;47.992;7.848;2023-03-14T06:27:39;15.80;43.90
2439;DHT22;14509;47.992;7.848;2023-03-14T06:29:41;15.90;43.90
2439;DHT22;14509;47.992;7.848;2023-03-14T06:31:43;16.00;44.00
2439;DHT22;14509;47.992;7.848;2023-03-14T06:33:52;16.00;43.10
2439;DHT22;14509;47.992;7.848;2023-03-14T06:35:55;16.00;43.10
2439;DHT22;14509;47.992;7.848;2023-03-14T06:38:05;16.00;42.90
2439;DHT22;14509;47.992;7.848;2023-03-14T06:40:09;16.00;42.80
2439;DHT22;14509;47.992;7.848;2023-03-14T06:42:24;16.00;42.90
2439;DHT22;14509;47.992;7.848;2023-03-14T06:44:28;16.60;43.10
2439;DHT22;14509;47.992;7.848;2023-03-14T06:46:34;16.30;42.40
2439;DHT22;14509;47.992;7.848;2023-03-14T06:48:36;16.50;42.30
2439;DHT22;14509;47.992;7.848;2023-03-14T06:50:38;16.50;41.30
2439;DHT22;14509;47.992;7.848;2023-03-14T06:52:40;16.80;41.40
2439;DHT22;14509;47.992;7.848;2023-03-14T06:54:49;16.80;41.00
2439;DHT22;14509;47.992;7.848;2023-03-14T06:56:55;16.60;39.70
2439;DHT22;14509;47.992;7.848;2023-03-14T06:58:57;16.60;40.30
2439;DHT22;14509;47.992;7.848;2023-03-14T07:01:02;16.70;40.40
2439;DHT22;14509;47.992;7.848;2023-03-14T07:03:14;16.80;39.80
2439;DHT22;14509;47.992;7.848;2023-03-14T07:05:32;16.80;39.30
2439;DHT22;14509;47.992;7.848;2023-03-14T07:07:35;16.80;38.90
2439;DHT22;14509;47.992;7.848;2023-03-14T07:09:40;16.80;38.90
2439;DHT22;14509;47.992;7.848;2023-03-14T07:11:45;16.90;39.00
2439;DHT22;14509;47.992;7.848;2023-03-14T07:13:50;16.90;39.40
2439;DHT22;14509;47.992;7.848;2023-03-14T07:15:55;16.90;38.80
2439;DHT22;14509;47.992;7.848;2023-03-14T07:17:58;17.00;38.90
2439;DHT22;14509;47.992;7.848;2023-03-14T07:20:01;17.20;38.60
2439;DHT22;14509;47.992;7.848;2023-03-14T07:22:08;17.20;37.90
2439;DHT22;14509;47.992;7.848;2023-03-14T07:24:10;17.20;38.30
2439;DHT22;14509;47.992;7.848;2023-03-14T07:26:14;17.40;38.20
2439;DHT22;14509;47.992;7.848;2023-03-14T07:28:33;17.50;37.80
2439;DHT22;14509;47.992;7.848;2023-03-14T07:30:49;17.60;37.90
2439;DHT22;14509;47.992;7.848;2023-03-14T07:32:56;17.60;37.10
2439;DHT22;14509;47.992;7.848;2023-03-14T07:34:59;17.60;37.00
2439;DHT22;14509;47.992;7.848;2023-03-14T07:37:01;17.80;37.50
2439;DHT22;14509;47.992;7.848;2023-03-14T07:39:06;18.00;37.40
2439;DHT22;14509;47.992;7.848;2023-03-14T07:41:24;18.20;37.20
2439;DHT22;14509;47.992;7.848;2023-03-14T07:43:46;18.30;36.90
2439;DHT22;14509;47.992;7.848;2023-03-14T07:45:49;18.20;37.10
2439;DHT22;14509;47.992;7.848;2023-03-14T07:47:52;18.10;37.20
2439;DHT22;14509;47.992;7.848;2023-03-14T07:49:58;17.90;37.40
2439;DHT22;14509;47.992;7.848;2023-03-14T07:52:01;17.90;38.00
2439;DHT22;14509;47.992;7.848;2023-03-14T07:54:03;17.90;38.40
2439;DHT22;14509;47.992;7.848;2023-03-14T07:56:05;17.90;38.20
2439;DHT22;14509;47.992;7.848;2023-03-14T07:58:11;17.80;38.50
2439;DHT22;14509;47.992;7.848;2023-03-14T08:00:16;17.90;38.80
2439;DHT22;14509;47.992;7.848;2023-03-14T08:02:25;17.90;39.00
2439;DHT22;14509;47.992;7.848;2023-03-14T08:04:34;17.80;39.30
2439;DHT22;14509;47.992;7.848;2023-03-14T08:06:45;17.80;39.20
2439;DHT22;14509;47.992;7.848;2023-03-14T08:08:54;17.80;39.10
2439;DHT22;14509;47.992;7.848;2023-03-14T08:11:03;18.00;39.70
2439;DHT22;14509;47.992;7.848;2023-03-14T08:13:10;17.70;39.20
2439;DHT22;14509;47.992;7.848;2023-03-14T08:15:21;17.60;39.20
2439;DHT22;14509;47.992;7.848;2023-03-14T08:17:23;17.30;39.70
2439;DHT22;14509;47.992;7.848;2023-03-14T08:19:25;17.30;40.30
2439;DHT22;14509;47.992;7.848;2023-03-14T08:21:28;17.20;40.60
2439;DHT22;14509;47.992;7.848;2023-03-14T08:23:30;17.30;40.90
2439;DHT22;14509;47.992;7.848;2023-03-14T08:25:32;17.00;40.70
2439;DHT22;14509;47.992;7.848;2023-03-14T08:27:35;17.30;41.00
2439;DHT22;14509;47.992;7.848;2023-03-14T08:29:45;17.40;41.00
2439;DHT22;14509;47.992;7.848;2023-03-14T08:31:54;17.40;41.00
2439;DHT22;14509;47.992;7.848;2023-03-14T08:34:02;17.50;41.00
2439;DHT22;14509;47.992;7.848;2023-03-14T08:36:04;17.60;41.00
2439;DHT22;14509;47.992;7.848;2023-03-14T08:38:10;17.50;41.10
2439;DHT22;14509;47.992;7.848;2023-03-14T08:40:18;17.40;41.30
2439;DHT22;14509;47.992;7.848;2023-03-14T08:42:20;17.40;41.40
2439;DHT22;14509;47.992;7.848;2023-03-14T08:44:25;17.40;41.80
2439;DHT22;14509;47.992;7.848;2023-03-14T08:46:30;17.60;42.00
2439;DHT22;14509;47.992;7.848;2023-03-14T08:48:34;17.40;42.00
2439;DHT22;14509;47.992;7.848;2023-03-14T08:50:36;17.40;41.90
2439;DHT22;14509;47.992;7.848;2023-03-14T08:52:45;17.50;41.70
2439;DHT22;14509;47.992;7.848;2023-03-14T08:54:50;17.40;41.60
2439;DHT22;14509;47.992;7.848;2023-03-14T08:56:58;17.60;41.80
2439;DHT22;14509;47.992;7.848;2023-03-14T08:59:05;17.70;41.70
2439;DHT22;14509;47.992;7.848;2023-03-14T09:01:09;17.80;41.80
2439;DHT22;14509;47.992;7.848;2023-03-14T09:03:17;17.80;41.40
2439;DHT22;14509;47.992;7.848;2023-03-14T09:05:21;17.80;41.10
2439;DHT22;14509;47.992;7.848;2023-03-14T09:07:28;17.80;41.00
2439;DHT22;14509;47.992;7.848;2023-03-14T09:09:34;17.90;41.30
2439;DHT22;14509;47.992;7.848;2023-03-14T09:11:36;17.90;41.20
2439;DHT22;14509;47.992;7.848;2023-03-14T09:13:40;18.00;41.40
2439;DHT22;14509;47.992;7.848;2023-03-14T09:15:49;18.10;41.20
2439;DHT22;14509;47.992;7.848;2023-03-14T09:17:52;18.30;41.30
2439;DHT22;14509;47.992;7.848;2023-03-14T09:19:57;18.10;41.10
2439;DHT22;14509;47.992;7.848;2023-03-14T09:22:00;18.10;41.20
2439;DHT22;14509;47.992;7.848;2023-03-14T09:24:03;18.00;42.00
2439;DHT22;14509;47.992;7.848;2023-03-14T09:26:06;18.00;41.50
2439;DHT22;14509;47.992;7.848;2023-03-14T09:28:15;17.90;41.50
2439;DHT22;14509;47.992;7.848;2023-03-14T09:30:29;17.80;41.70
2439;DHT22;14509;47.992;7.848;2023-03-14T09:32:40;17.70;41.60
2439;DHT22;14509;47.992;7.848;2023-03-14T09:34:44;17.60;42.00
2439;DHT22;14509;47.992;7.848;2023-03-14T09:36:47;17.70;41.90
2439;DHT22;14509;47.992;7.848;2023-03-14T09:38:59;17.50;41.50
2439;DHT22;14509;47.992;7.848;2023-03-14T09:47:47;17.30;42.40
2439;DHT22;14509;47.992;7.848;2023-03-14T09:49:51;17.60;42.80
2439;DHT22;14509;47.992;7.848;2023-03-14T09:51:58;17.20;42.30
2439;DHT22;14509;47.992;7.848;2023-03-14T09:54:10;16.80;43.20
2439;DHT22;14509;47.992;7.848;2023-03-14T09:56:29;16.60;43.80
2439;DHT22;14509;47.992;7.848;2023-03-14T09:58:41;16.70;44.00
2439;DHT22;14509;47.992;7.848;2023-03-14T10:00:50;16.50;44.30
2439;DHT22;14509;47.992;7.848;2023-03-14T10:07:23;16.50;45.00
2439;DHT22;14509;47.992;7.848;2023-03-14T10:10:33;16.30;45.60
2439;DHT22;14509;47.992;7.848;2023-03-14T10:20:01;16.10;46.60
2439;DHT22;14509;47.992;7.848;2023-03-14T10:22:17;16.10;46.60
2439;DHT22;14509;47.992;7.848;2023-03-14T10:25:04;16.20;46.70
2439;DHT22;14509;47.992;7.848;2023-03-14T10:27:28;16.30;46.50
2439;DHT22;14509;47.992;7.848;2023-03-14T10:29:58;16.10;46.60
2439;DHT22;14509;47.992;7.848;2023-03-14T10:32:20;16.10;47.10
2439;DHT22;14509;47.992;7.848;2023-03-14T10:34:24;16.20;47.10
2439;DHT22;14509;47.992;7.848;2023-03-14T10:36:33;16.30;46.70
2439;DHT22;14509;47.992;7.848;2023-03-14T10:38:51;16.50;46.70
2439;DHT22;14509;47.992;7.848;2023-03-14T10:41:19;16.40;46.60
2439;DHT22;14509;47.992;7.848;2023-03-14T10:43:31;16.30;47.00
2439;DHT22;14509;47.992;7.848;2023-03-14T10:45:38;16.40;46.90
2439;DHT22;14509;47.992;7.848;2023-03-14T10:47:51;16.50;46.90
2439;DHT22;14509;47.992;7.848;2023-03-14T10:50:22;16.30;47.00
2439;DHT22;14509;47.992;7.848;2023-03-14T10:52:56;16.40;47.50
2439;DHT22;14509;47.992;7.848;2023-03-14T10:55:03;16.40;47.70
2439;DHT22;14509;47.992;7.848;2023-03-14T10:57:39;16.10;48.00
2439;DHT22;14509;47.992;7.848;2023-03-14T10:59:53;16.10;48.60
2439;DHT22;14509;47.992;7.848;2023-03-14T11:02:46;16.40;48.90
2439;DHT22;14509;47.992;7.848;2023-03-14T11:05:07;16.00;48.80
2439;DHT22;14509;47.992;7.848;2023-03-14T11:08:02;16.10;49.20
2439;DHT22;14509;47.992;7.848;2023-03-14T11:11:51;16.00;49.40
2439;DHT22;14509;47.992;7.848;2023-03-14T11:16:07;15.80;49.30
2439;DHT22;14509;47.992;7.848;2023-03-14T11:18:54;15.60;50.00
2439;DHT22;14509;47.992;7.848;2023-03-14T11:24:20;15.10;53.60
2439;DHT22;14509;47.992;7.848;2023-03-14T11:27:12;15.10;54.10
2439;DHT22;14509;47.992;7.848;2023-03-14T11:32:39;15.00;54.60
2439;DHT22;14509;47.992;7.848;2023-03-14T11:35:04;14.90;54.90
2439;DHT22;14509;47.992;7.848;2023-03-14T11:37:19;14.80;55.30
2439;DHT22;14509;47.992;7.848;2023-03-14T11:39:41;13.20;52.00
2439;DHT22;14509;47.992;7.848;2023-03-14T11:42:17;13.10;55.60
2439;DHT22;14509;47.992;7.848;2023-03-14T11:45:23;11.20;57.20
2439;DHT22;14509;47.992;7.848;2023-03-14T11:48:10;12.30;58.70
2439;DHT22;14509;47.992;7.848;2023-03-14T11:50:30;11.60;60.20
2439;DHT22;14509;47.992;7.848;2023-03-14T11:52:34;11.60;60.60
2439;DHT22;14509;47.992;7.848;2023-03-14T11:54:42;11.40;60.30
2439;DHT22;14509;47.992;7.848;2023-03-14T11:56:48;11.50;60.90
2439;DHT22;14509;47.992;7.848;2023-03-14T11:58:57;11.70;61.00
2439;DHT22;14509;47.992;7.848;2023-03-14T12:01:05;12.10;60.20
2439;DHT22;14509;47.992;7.848;2023-03-14T12:03:14;12.00;58.00
2439;DHT22;14509;47.992;7.848;2023-03-14T12:08:19;12.70;57.50
2439;DHT22;14509;47.992;7.848;2023-03-14T12:10:24;13.00;55.50
2439;DHT22;14509;47.992;7.848;2023-03-14T12:12:27;13.30;55.40
2439;DHT22;14509;47.992;7.848;2023-03-14T12:14:35;13.50;56.20
2439;DHT22;14509;47.992;7.848;2023-03-14T12:16:39;13.60;51.30
2439;DHT22;14509;47.992;7.848;2023-03-14T12:18:43;13.80;53.60
2439;DHT22;14509;47.992;7.848;2023-03-14T12:20:51;13.80;48.90
2439;DHT22;14509;47.992;7.848;2023-03-14T12:23:03;13.90;52.50
2439;DHT22;14509;47.992;7.848;2023-03-14T12:25:20;14.00;51.50
2439;DHT22;14509;47.992;7.848;2023-03-14T12:27:46;14.10;49.90
2439;DHT22;14509;47.992;7.848;2023-03-14T12:30:00;14.10;52.20
2439;DHT22;14509;47.992;7.848;2023-03-14T12:32:23;14.20;50.80
2439;DHT22;14509;47.992;7.848;2023-03-14T12:34:39;14.40;48.20
2439;DHT22;14509;47.992;7.848;2023-03-14T12:36:58;14.50;46.30
2439;DHT22;14509;47.992;7.848;2023-03-14T12:39:29;14.70;46.40
2439;DHT22;14509;47.992;7.848;2023-03-14T12:41:48;15.00;48.60
2439;DHT22;14509;47.992;7.848;2023-03-14T12:49:57;15.40;42.60
2439;DHT22;14509;47.992;7.848;2023-03-14T12:52:19;15.80;46.70
2439;DHT22;14509;47.992;7.848;2023-03-14T12:54:33;15.70;39.70
2439;DHT22;14509;47.992;7.848;2023-03-14T12:57:14;15.80;44.90
2439;DHT22;14509;47.992;7.848;2023-03-14T12:59:43;15.80;41.00
2439;DHT22;14509;47.992;7.848;2023-03-14T13:02:25;15.60;45.60
2439;DHT22;14509;47.992;7.848;2023-03-14T13:04:44;15.70;42.40
2439;DHT22;14509;47.992;7.848;2023-03-14T13:06:58;15.60;46.60
2439;DHT22;14509;47.992;7.848;2023-03-14T13:09:49;15.30;43.60
2439;DHT22;14509;47.992;7.848;2023-03-14T13:12:00;14.80;45.70
2439;DHT22;14509;47.992;7.848;2023-03-14T13:14:09;14.40;44.90
2439;DHT22;14509;47.992;7.848;2023-03-14T13:16:16;14.20;49.80
2439;DHT22;14509;47.992;7.848;2023-03-14T13:18:26;14.20;49.60
2439;DHT22;14509;47.992;7.848;2023-03-14T13:20:34;14.10;47.30
2439;DHT22;14509;47.992;7.848;2023-03-14T13:22:46;14.10;48.70
2439;DHT22;14509;47.992;7.848;2023-03-14T13:24:49;14.10;48.00
2439;DHT22;14509;47.992;7.848;2023-03-14T13:27:08;14.30;48.00
2439;DHT22;14509;47.992;7.848;2023-03-14T13:29:27;14.40;47.30
2439;DHT22;14509;47.992;7.848;2023-03-14T13:31:32;14.60;45.30
2439;DHT22;14509;47.992;7.848;2023-03-14T13:34:06;14.60;45.30
2439;DHT22;14509;47.992;7.848;2023-03-14T13:36:13;14.30;44.70
2439;DHT22;14509;47.992;7.848;2023-03-14T13:38:32;14.20;43.50
2439;DHT22;14509;47.992;7.848;2023-03-14T13:40:58;14.00;42.00
2439;DHT22;14509;47.992;7.848;2023-03-14T13:43:06;13.90;45.90
2439;DHT22;14509;47.992;7.848;2023-03-14T13:45:23;13.90;45.70
2439;DHT22;14509;47.992;7.848;2023-03-14T13:47:43;13.90;43.90
2439;DHT22;14509;47.992;7.848;2023-03-14T13:49:54;13.90;44.60
2439;DHT22;14509;47.992;7.848;2023-03-14T13:52:31;13.70;44.40
2439;DHT22;14509;47.992;7.848;2023-03-14T13:54:40;13.70;46.10
2439;DHT22;14509;47.992;7.848;2023-03-14T13:57:07;13.70;42.50
2439;DHT22;14509;47.992;7.848;2023-03-14T13:59:26;13.60;44.10
2439;DHT22;14509;47.992;7.848;2023-03-14T14:01:46;13.90;44.50
2439;DHT22;14509;47.992;7.848;2023-03-14T14:03:50;14.00;45.40
2439;DHT22;14509;47.992;7.848;2023-03-14T14:05:59;14.10;43.80
2439;DHT22;14509;47.992;7.848;2023-03-14T14:10:44;14.00;43.00
2439;DHT22;14509;47.992;7.848;2023-03-14T14:12:55;14.00;39.60
2439;DHT22;14509;47.992;7.848;2023-03-14T14:15:14;14.00;42.00
2439;DHT22;14509;47.992;7.848;2023-03-14T14:17:23;13.90;40.30
2439;DHT22;14509;47.992;7.848;2023-03-14T14:19:30;14.00;39.60
2439;DHT22;14509;47.992;7.848;2023-03-14T14:21:45;14.00;41.80
2439;DHT22;14509;47.992;7.848;2023-03-14T14:24:07;14.10;45.60
2439;DHT22;14509;47.992;7.848;2023-03-14T14:26:31;14.20;43.70
2439;DHT22;14509;47.992;7.848;2023-03-14T14:28:41;14.30;47.70
2439;DHT22;14509;47.992;7.848;2023-03-14T14:31:00;14.40;44.50
2439;DHT22;14509;47.992;7.848;2023-03-14T14:33:18;14.30;45.30
2439;DHT22;14509;47.992;7.848;2023-03-14T14:35:37;14.40;44.80
2439;DHT22;14509;47.992;7.848;2023-03-14T14:37:54;14.50;45.00
2439;DHT22;14509;47.992;7.848;2023-03-14T14:39:58;14.50;42.80